createdAt,value
2022-12-19T00:03:11.667Z,75.04
2022-12-19T00:08:17.828Z,75.37
2022-12-19T00:13:20.309Z,75.22
2022-12-19T00:18:22.656Z,75.28
2022-12-19T00:23:24.991Z,75.13
2022-12-19T00:28:27.441Z,75.45
2022-12-19T00:33:29.857Z,75.40
2022-12-19T00:38:33.250Z,75.39
2022-12-19T00:43:36.809Z,75.23
2022-12-19T00:48:39.119Z,75.40
2022-12-19T00:53:41.430Z,75.79
2022-12-19T00:58:47.151Z,75.83
2022-12-19T01:04:19.120Z,76.04
2022-12-19T01:09:12.943Z,76.17
2022-12-19T01:14:22.293Z,76.09
2022-12-19T01:19:27.207Z,76.12
2022-12-19T01:24:29.501Z,76.12
2022-12-19T01:29:33.532Z,76.23
2022-12-19T01:34:37.793Z,76.40
2022-12-19T01:39:40.012Z,76.30
2022-12-19T01:45:08.431Z,76.57
2022-12-19T01:50:16.435Z,76.25
2022-12-19T01:55:19.924Z,76.40
2022-12-19T02:00:24.024Z,76.37
2022-12-19T02:05:26.599Z,76.36
2022-12-19T02:10:28.946Z,76.47
2022-12-19T02:15:37.316Z,76.69
2022-12-19T02:21:01.981Z,76.85
2022-12-19T02:26:14.981Z,76.70
2022-12-19T02:31:27.123Z,76.64
2022-12-19T02:36:42.664Z,76.58
2022-12-19T02:41:51.863Z,76.54
2022-12-19T02:46:59.318Z,76.87
2022-12-19T02:52:20.601Z,76.83
2022-12-19T02:57:30.539Z,76.73
2022-12-19T03:03:18.498Z,77.21
2022-12-19T03:08:25.585Z,77.03
2022-12-19T03:13:35.881Z,76.91
2022-12-19T03:18:38.641Z,77.02
2022-12-19T03:23:41.591Z,77.22
2022-12-19T03:28:54.403Z,77.31
2022-12-19T03:34:00.066Z,77.39
2022-12-19T03:39:04.857Z,77.24
2022-12-19T03:44:08.200Z,76.99
2022-12-19T03:49:11.190Z,77.15
2022-12-19T03:54:19.476Z,77.26
2022-12-19T03:59:38.252Z,77.57
2022-12-19T04:04:43.196Z,77.19
2022-12-19T04:09:48.726Z,77.15
2022-12-19T04:14:51.750Z,77.23
2022-12-19T04:20:07.896Z,77.29
2022-12-19T04:25:13.485Z,77.35
2022-12-19T04:30:17.542Z,77.26
2022-12-19T04:35:19.851Z,77.31
2022-12-19T04:40:23.969Z,77.34
2022-12-19T04:45:29.169Z,77.89
2022-12-19T04:50:33.486Z,77.70
2022-12-19T04:55:35.727Z,77.79
2022-12-19T05:00:37.972Z,77.76
2022-12-19T05:05:40.284Z,77.92
2022-12-19T05:10:42.929Z,77.83
2022-12-19T05:15:56.421Z,78.00
2022-12-19T05:20:58.905Z,78.00
2022-12-19T05:26:02.319Z,78.33
2022-12-19T05:31:20.038Z,78.34
2022-12-19T05:36:26.423Z,78.42
2022-12-19T05:41:31.459Z,78.56
2022-12-19T05:46:33.819Z,78.69
2022-12-19T05:51:36.070Z,78.59
2022-12-19T05:56:38.312Z,78.54
2022-12-19T06:01:41.028Z,78.82
2022-12-19T06:06:43.371Z,78.79
2022-12-19T06:11:45.527Z,78.75
2022-12-19T06:16:48.401Z,78.85
2022-12-19T06:21:50.791Z,79.01
2022-12-19T06:26:53.055Z,79.10
2022-12-19T06:31:56.031Z,78.85
2022-12-19T06:36:58.305Z,78.73
2022-12-19T06:42:19.030Z,78.99
2022-12-19T06:47:22.503Z,78.87
2022-12-19T06:52:24.785Z,79.15
2022-12-19T06:57:27.060Z,79.43
2022-12-19T07:02:31.259Z,79.50
2022-12-19T07:07:34.011Z,79.39
2022-12-19T07:12:36.621Z,79.50
2022-12-19T07:17:39.271Z,79.65
2022-12-19T07:22:41.945Z,79.52
2022-12-19T07:27:45.054Z,79.77
2022-12-19T07:32:47.298Z,79.62
2022-12-19T07:37:50.874Z,79.97
2022-12-19T07:42:53.126Z,79.79
2022-12-19T07:47:55.564Z,80.08
2022-12-19T07:52:58.694Z,80.10
2022-12-19T07:58:01.007Z,80.25
2022-12-19T08:03:03.478Z,80.03
2022-12-19T08:08:10.263Z,80.29
2022-12-19T08:13:13.757Z,80.08
2022-12-19T08:18:15.981Z,80.40
2022-12-19T08:23:18.263Z,80.32
2022-12-19T08:28:20.558Z,80.53
2022-12-19T08:33:22.783Z,80.60
2022-12-19T08:38:24.993Z,80.81
2022-12-19T08:43:28.044Z,80.91
2022-12-19T08:48:31.811Z,80.55
2022-12-19T08:53:37.641Z,80.42
2022-12-19T08:58:41.714Z,80.62
2022-12-19T09:04:08.834Z,80.45
2022-12-19T09:09:07.370Z,80.65
2022-12-19T09:14:12.009Z,80.77
2022-12-19T09:19:17.194Z,80.81
2022-12-19T09:24:19.815Z,80.67
2022-12-19T09:29:22.513Z,80.88
2022-12-19T09:34:38.116Z,80.88
2022-12-19T09:39:41.164Z,80.92
2022-12-19T09:44:53.435Z,80.62
2022-12-19T09:49:55.850Z,80.59
2022-12-19T09:55:04.312Z,80.88
2022-12-19T10:00:15.947Z,81.11
2022-12-19T10:07:11.013Z,81.36
2022-12-19T10:12:43.157Z,80.83
2022-12-19T10:17:22.099Z,81.04
2022-12-19T10:22:38.715Z,81.24
2022-12-19T10:28:00.456Z,81.16
2022-12-19T10:33:30.169Z,81.46
2022-12-19T10:38:34.799Z,81.30
2022-12-19T10:43:54.029Z,81.49
2022-12-19T10:48:56.282Z,81.48
2022-12-19T10:54:00.535Z,81.68
2022-12-19T10:59:03.408Z,81.57
2022-12-19T11:04:32.161Z,81.90
2022-12-19T11:09:38.483Z,81.77
2022-12-19T11:21:20.072Z,81.78
2022-12-19T11:29:38.399Z,81.72
2022-12-19T11:30:05.877Z,81.72
2022-12-19T11:36:39.836Z,81.68
2022-12-19T11:41:48.908Z,81.66
2022-12-19T11:47:33.103Z,81.99
2022-12-19T11:53:05.965Z,82.25
2022-12-19T11:58:11.743Z,81.84
2022-12-19T12:03:29.623Z,81.98
2022-12-19T12:11:53.431Z,82.21
2022-12-19T12:24:56.060Z,81.88
2022-12-19T12:31:10.256Z,81.99
2022-12-19T12:31:51.871Z,82.06
2022-12-19T12:35:33.641Z,82.26
2022-12-19T12:42:33.466Z,82.00
2022-12-19T12:47:36.465Z,81.93
2022-12-19T12:52:44.624Z,82.08
2022-12-19T12:57:46.914Z,81.99
2022-12-19T13:03:05.250Z,82.34
2022-12-19T13:08:44.401Z,82.50
2022-12-19T13:13:58.378Z,82.41
2022-12-19T13:19:19.577Z,82.44
2022-12-19T13:24:23.565Z,82.07
2022-12-19T13:29:32.991Z,82.19
2022-12-19T13:34:38.262Z,82.64
2022-12-19T13:40:18.504Z,82.14
2022-12-19T13:45:29.068Z,82.09
2022-12-19T13:50:35.112Z,82.32
2022-12-19T13:55:40.180Z,82.35
2022-12-19T14:00:43.442Z,82.49
2022-12-19T14:06:17.345Z,82.46
2022-12-19T14:11:37.673Z,82.42
2022-12-19T14:16:40.206Z,82.67
2022-12-19T14:22:04.707Z,82.64
2022-12-19T14:28:20.125Z,82.75
2022-12-19T14:33:40.997Z,82.69
2022-12-19T14:39:19.846Z,82.45
2022-12-19T14:43:59.872Z,82.95
2022-12-19T14:53:27.802Z,82.94
2022-12-19T14:59:49.398Z,82.83
2022-12-19T15:05:04.335Z,83.15
2022-12-19T15:11:03.854Z,83.21
2022-12-19T15:15:55.351Z,83.13
2022-12-19T15:20:59.568Z,82.90
2022-12-19T15:26:08.569Z,83.05
2022-12-19T15:31:24.642Z,83.28
2022-12-19T15:36:27.069Z,83.11
2022-12-19T15:41:29.915Z,83.11
2022-12-19T15:46:33.025Z,83.36
2022-12-19T15:51:35.753Z,83.40
2022-12-19T15:56:41.235Z,83.38
2022-12-19T16:01:43.705Z,83.46
2022-12-19T16:06:46.177Z,83.40
2022-12-19T16:11:49.940Z,83.52
2022-12-19T16:16:55.834Z,83.40
2022-12-19T16:21:58.767Z,83.58
2022-12-19T16:27:01.312Z,83.22
2022-12-19T16:32:06.633Z,83.42
2022-12-19T16:37:09.203Z,83.40
2022-12-19T16:42:16.655Z,83.50
2022-12-19T16:47:18.969Z,83.40
2022-12-19T16:52:21.347Z,83.47
2022-12-19T16:57:23.623Z,83.39
2022-12-19T17:02:39.722Z,83.50
2022-12-19T17:07:42.234Z,83.29
2022-12-19T17:12:45.548Z,83.42
2022-12-19T17:17:48.111Z,83.44
2022-12-19T17:22:50.488Z,83.48
2022-12-19T17:27:54.547Z,83.59
2022-12-19T17:32:57.230Z,83.53
2022-12-19T17:38:00.039Z,83.67
2022-12-19T17:43:03.585Z,83.70
2022-12-19T17:48:10.146Z,83.64
2022-12-19T17:53:16.354Z,83.52
2022-12-19T17:58:21.867Z,83.39
2022-12-19T18:03:26.617Z,83.58
2022-12-19T18:08:32.346Z,83.55
2022-12-19T18:13:35.641Z,83.70
2022-12-19T18:18:38.272Z,83.50
2022-12-19T18:23:43.416Z,83.74
2022-12-19T18:28:46.023Z,83.54
2022-12-19T18:33:51.998Z,83.50
2022-12-19T18:38:57.513Z,83.59
2022-12-19T18:44:01.741Z,83.45
2022-12-19T18:49:07.119Z,83.43
2022-12-19T18:54:21.922Z,83.48
2022-12-19T18:59:28.660Z,83.54
2022-12-19T19:04:37.552Z,83.22
2022-12-19T19:09:41.760Z,83.28
2022-12-19T19:15:06.315Z,83.07
2022-12-19T19:20:09.226Z,83.05
2022-12-19T19:25:17.484Z,83.17
2022-12-19T19:30:20.617Z,83.20
2022-12-19T19:35:24.786Z,83.00
2022-12-19T19:40:27.486Z,82.84
2022-12-19T19:45:31.188Z,82.68
2022-12-19T19:50:33.524Z,82.67
2022-12-19T19:55:35.874Z,82.62
2022-12-19T20:00:38.211Z,82.82
2022-12-19T20:05:40.481Z,82.72
2022-12-19T20:10:42.735Z,82.74
2022-12-19T20:15:49.764Z,82.62
2022-12-19T20:20:52.451Z,82.77
2022-12-19T20:25:54.717Z,82.64
2022-12-19T20:30:57.615Z,82.39
2022-12-19T20:36:08.435Z,82.56
2022-12-19T20:41:10.774Z,82.53
2022-12-19T20:46:15.502Z,82.60
2022-12-19T20:51:19.452Z,82.32
2022-12-19T20:56:23.530Z,82.45
2022-12-19T21:01:25.973Z,82.48
2022-12-19T21:06:28.632Z,82.40
2022-12-19T21:11:31.076Z,82.49
2022-12-19T21:16:33.413Z,82.39
2022-12-19T21:21:35.780Z,82.29
2022-12-19T21:26:38.174Z,82.37
2022-12-19T21:31:40.547Z,82.40
2022-12-19T21:36:42.803Z,82.44
2022-12-19T21:41:45.102Z,82.22
2022-12-19T21:46:47.366Z,82.40
2022-12-19T21:51:49.886Z,82.27
2022-12-19T21:56:52.100Z,82.40
2022-12-19T22:01:54.590Z,82.32
2022-12-19T22:06:57.008Z,82.29
2022-12-19T22:11:59.434Z,82.36
2022-12-19T22:17:01.632Z,82.24
2022-12-19T22:22:04.260Z,82.43
2022-12-19T22:27:06.531Z,82.29
2022-12-19T22:32:08.784Z,82.33
2022-12-19T22:37:11.037Z,82.29
2022-12-19T22:42:13.340Z,82.26
2022-12-19T22:47:15.563Z,82.34
2022-12-19T22:52:17.829Z,82.18
2022-12-19T22:57:21.733Z,82.11
2022-12-19T23:02:24.154Z,82.14
2022-12-19T23:07:26.491Z,82.09
2022-12-19T23:12:28.686Z,82.15
2022-12-19T23:17:31.067Z,82.20
2022-12-19T23:22:33.336Z,82.01
2022-12-19T23:27:35.840Z,82.08
2022-12-19T23:32:38.161Z,81.92
2022-12-19T23:37:40.461Z,81.87
2022-12-19T23:42:42.615Z,81.80
2022-12-19T23:47:47.128Z,81.93
2022-12-19T23:52:49.297Z,81.98
2022-12-19T23:57:51.607Z,81.91
